Time;durP1;ratioP1;P1;durP2;ratioP2;P2;SDS_P1;SDS_P2;PMS_P1;PMS_P2;Temp;Humidity;BMP_temperature;BMP_pressure;BME280_temperature;BME280_humidity;BME280_pressure;Samples;Min_cycle;Max_cycle;Signal;HPM_P1;HPM_P2
2021/03/13 00:02:28;;;;;;;3.63;1.98;;;0.30;99.90;;;;;;20797518;28;20057;-50
2021/03/13 00:12:31;;;;;;;4.10;2.10;;;0.20;99.90;;;;;;20796615;28;20037;-50
2021/03/13 00:22:33;;;;;;;5.60;1.75;;;0.00;99.90;;;;;;20861392;28;20041;-50
2021/03/13 00:32:35;;;;;;;7.07;2.10;;;-0.10;99.90;;;;;;20818816;28;20038;-50
2021/03/13 00:42:37;;;;;;;5.18;2.28;;;0.00;99.90;;;;;;20794280;28;20049;-49
2021/03/13 00:52:39;;;;;;;3.42;1.98;;;-0.10;99.90;;;;;;20791861;28;20443;-54
2021/03/13 01:02:42;;;;;;;4.57;1.80;;;-0.10;99.90;;;;;;20850350;28;20415;-49
2021/03/13 01:12:45;;;;;;;2.70;1.30;;;-0.10;99.90;;;;;;20857405;28;20482;-48
2021/03/13 01:22:48;;;;;;;2.33;1.00;;;0.00;99.90;;;;;;20872619;28;20098;-50
2021/03/13 01:32:51;;;;;;;2.70;1.08;;;0.10;99.90;;;;;;20815208;28;20041;-50
2021/03/13 01:42:54;;;;;;;2.60;1.40;;;-0.10;99.90;;;;;;20855391;28;20040;-50
2021/03/13 01:53:02;;;;;;;5.95;2.75;;;0.00;99.90;;;;;;20869095;28;20055;-46
2021/03/13 02:03:10;;;;;;;5.97;2.03;;;0.10;99.90;;;;;;20852547;28;20540;-49
2021/03/13 02:13:25;;;;;;;2.90;1.73;;;0.60;99.90;;;;;;20853017;28;20094;-52
2021/03/13 02:23:30;;;;;;;3.78;1.90;;;0.40;99.40;;;;;;20867924;28;20130;-51
2021/03/13 02:33:58;;;;;;;5.13;2.80;;;0.30;99.90;;;;;;20869432;28;20041;-50
2021/03/13 02:44:24;;;;;;;3.40;1.90;;;0.40;99.90;;;;;;20838018;28;20399;-49
2021/03/13 02:54:34;;;;;;;3.15;1.70;;;0.00;99.90;;;;;;20866094;28;20041;-50
2021/03/13 03:04:39;;;;;;;1.95;1.05;;;-0.40;99.90;;;;;;20863395;28;20060;-49
2021/03/13 03:14:45;;;;;;;2.00;1.02;;;-0.70;99.90;;;;;;20881856;28;20064;-50
2021/03/13 03:24:48;;;;;;;1.52;0.75;;;-0.50;99.30;;;;;;20865309;28;20430;-47
2021/03/13 03:34:50;;;;;;;3.90;0.95;;;-0.40;95.70;;;;;;20880308;28;20450;-51
2021/03/13 03:44:56;;;;;;;1.77;0.63;;;0.10;95.00;;;;;;20847421;28;20352;-47
2021/03/13 03:55:01;;;;;;;1.45;0.40;;;0.00;95.40;;;;;;20879937;28;20061;-50
2021/03/13 04:05:06;;;;;;;0.63;0.20;;;0.00;93.20;;;;;;20896029;28;20102;-51
2021/03/13 04:15:10;;;;;;;0.50;0.20;;;0.00;90.70;;;;;;20894239;28;20063;-48
2021/03/13 04:25:13;;;;;;;0.70;0.30;;;-0.10;91.70;;;;;;20895476;28;20067;-48
2021/03/13 04:35:16;;;;;;;0.57;0.30;;;-0.20;92.00;;;;;;20859377;28;20410;-48
2021/03/13 04:45:19;;;;;;;1.65;0.60;;;-0.30;93.90;;;;;;20858762;28;20052;-50
2021/03/13 04:55:21;;;;;;;4.25;1.60;;;-0.40;93.40;;;;;;20843108;28;20037;-50
2021/03/13 05:05:23;;;;;;;3.33;1.40;;;-0.50;96.50;;;;;;20891580;28;20118;-49
2021/03/13 05:15:25;;;;;;;5.30;2.92;;;-0.40;96.10;;;;;;20872444;28;20037;-50
2021/03/13 05:25:27;;;;;;;6.05;2.88;;;-0.40;99.20;;;;;;20898539;28;20196;-47
2021/03/13 05:35:29;;;;;;;6.95;3.42;;;-0.30;99.90;;;;;;20888703;28;20487;-49
2021/03/13 05:45:32;;;;;;;11.88;5.05;;;-0.30;99.90;;;;;;20883762;28;20491;-52
2021/03/13 05:55:34;;;;;;;9.25;4.40;;;-0.20;99.90;;;;;;20863753;28;20352;-46
2021/03/13 06:05:36;;;;;;;13.85;5.55;;;-0.40;99.90;;;;;;20859413;28;20110;-50
2021/03/13 06:15:38;;;;;;;12.95;6.47;;;-0.50;99.90;;;;;;20852166;28;20033;-48
2021/03/13 06:25:42;;;;;;;18.75;8.98;;;-0.40;99.90;;;;;;20852184;28;20078;-48
2021/03/13 06:35:45;;;;;;;19.75;10.57;;;-0.20;99.90;;;;;;20850559;28;20510;-50
2021/03/13 06:46:02;;;;;;;20.48;9.73;;;0.10;99.90;;;;;;20866849;28;20321;-57
2021/03/13 06:56:11;;;;;;;22.50;12.07;;;0.20;99.90;;;;;;20889460;28;20044;-48
2021/03/13 07:06:18;;;;;;;26.02;13.10;;;0.50;99.90;;;;;;20850332;28;20103;-50
2021/03/13 07:16:36;;;;;;;28.85;14.15;;;0.80;99.90;;;;;;20857438;28;20094;-49
2021/03/13 07:26:46;;;;;;;25.35;12.82;;;1.50;99.90;;;;;;20804217;28;20069;-50
2021/03/13 07:36:52;;;;;;;24.92;13.18;;;2.30;99.90;;;;;;21009436;22;20053;-67
2021/03/13 07:46:55;;;;;;;31.85;17.70;;;3.30;99.90;;;;;;20820372;28;20045;-68
2021/03/13 07:56:59;;;;;;;32.30;16.98;;;4.40;99.90;;;;;;20797250;28;20068;-68
2021/03/13 08:07:02;;;;;;;29.92;17.50;;;5.50;99.90;;;;;;20813410;28;20119;-68
2021/03/13 08:17:11;;;;;;;32.28;18.45;;;6.40;99.90;;;;;;20796923;28;20096;-69
2021/03/13 08:27:17;;;;;;;25.13;15.82;;;7.00;99.90;;;;;;20795558;28;20087;-69
2021/03/13 08:37:22;;;;;;;29.75;17.67;;;7.50;99.90;;;;;;20846200;28;20183;-69
2021/03/13 08:47:44;;;;;;;30.17;18.20;;;7.90;99.90;;;;;;20892613;28;20051;-68
2021/03/13 08:57:48;;;;;;;36.85;21.77;;;8.30;99.90;;;;;;20834687;28;20041;-69
2021/03/13 09:07:55;;;;;;;32.15;20.02;;;8.40;99.90;;;;;;20790403;28;20037;-68
2021/03/13 09:17:58;;;;;;;31.52;19.45;;;8.20;99.90;;;;;;20807606;28;20107;-68
2021/03/13 09:28:01;;;;;;;40.58;22.58;;;8.30;99.90;;;;;;20808877;28;20056;-69
2021/03/13 09:38:09;;;;;;;36.00;22.40;;;8.80;99.90;;;;;;20788570;28;20118;-69
2021/03/13 09:48:12;;;;;;;39.38;23.35;;;9.10;99.90;;;;;;20788043;28;20080;-68
2021/03/13 09:58:17;;;;;;;39.33;24.35;;;9.60;99.90;;;;;;20788021;28;20491;-70
2021/03/13 10:08:20;;;;;;;41.58;25.58;;;9.70;99.70;;;;;;20876996;28;20033;-69
2021/03/13 10:18:27;;;;;;;37.60;23.65;;;10.20;99.90;;;;;;20884748;28;20099;-70
2021/03/13 10:28:32;;;;;;;42.67;27.92;;;10.60;99.90;;;;;;20887603;28;20509;-69
2021/03/13 10:38:44;;;;;;;43.50;27.80;;;10.90;99.90;;;;;;20866277;28;20103;-70
2021/03/13 10:48:53;;;;;;;43.03;27.80;;;11.30;99.90;;;;;;20884298;28;20041;-70
2021/03/13 10:58:57;;;;;;;46.42;28.80;;;11.50;99.90;;;;;;20835438;28;20115;-70
2021/03/13 11:09:02;;;;;;;52.58;31.13;;;11.90;99.00;;;;;;20801320;28;20026;-69
2021/03/13 11:19:05;;;;;;;48.00;30.52;;;11.60;99.90;;;;;;20803930;28;20114;-68
2021/03/13 11:29:07;;;;;;;48.08;28.35;;;11.00;99.90;;;;;;20799829;28;20046;-69
2021/03/13 11:39:10;;;;;;;45.92;28.63;;;10.90;99.90;;;;;;20798699;28;20054;-68
2021/03/13 11:49:13;;;;;;;45.10;28.00;;;11.00;99.50;;;;;;20813911;28;20045;-69
2021/03/13 11:59:15;;;;;;;47.78;28.70;;;11.00;99.90;;;;;;20815827;28;20037;-69
2021/03/13 12:09:17;;;;;;;43.38;26.25;;;10.90;99.30;;;;;;20989915;22;20066;-45
2021/03/13 12:19:19;;;;;;;42.58;26.92;;;10.70;99.00;;;;;;20778748;28;20064;-47
2021/03/13 12:29:21;;;;;;;47.08;28.33;;;10.60;98.70;;;;;;20779264;28;20087;-47
2021/03/13 12:39:23;;;;;;;45.35;28.13;;;10.80;99.10;;;;;;20777283;28;20041;-47
2021/03/13 12:49:25;;;;;;;42.03;23.55;;;10.90;97.70;;;;;;20791954;28;20468;-44
2021/03/13 12:59:27;;;;;;;49.42;28.55;;;10.60;96.90;;;;;;20723562;28;20051;-44
2021/03/13 13:09:29;;;;;;;56.53;33.72;;;10.70;97.80;;;;;;20741184;28;20108;-45
2021/03/13 13:19:32;;;;;;;51.45;30.17;;;10.40;99.90;;;;;;20726819;28;20050;-45
2021/03/13 13:29:34;;;;;;;59.05;34.25;;;10.60;98.10;;;;;;20725773;28;20064;-54
2021/03/13 13:39:36;;;;;;;52.42;32.08;;;10.10;99.80;;;;;;20725304;28;20050;-45
2021/03/13 13:49:38;;;;;;;47.28;25.40;;;9.80;99.90;;;;;;20673514;28;20492;-45
2021/03/13 13:59:41;;;;;;;46.60;27.33;;;9.80;98.30;;;;;;20637949;28;20038;-45
2021/03/13 14:09:43;;;;;;;44.30;26.08;;;9.60;98.50;;;;;;20754659;28;20407;-49
2021/03/13 14:19:45;;;;;;;34.30;19.20;;;9.10;98.00;;;;;;20785701;28;20041;-58
2021/03/13 14:29:47;;;;;;;35.15;18.52;;;8.60;95.70;;;;;;20800664;28;20033;-49
2021/03/13 14:39:49;;;;;;;28.23;15.70;;;8.40;96.00;;;;;;20671769;28;20072;-49
2021/03/13 14:49:52;;;;;;;15.95;9.07;;;8.50;91.40;;;;;;20687485;28;20033;-46
2021/03/13 14:59:53;;;;;;;18.90;10.55;;;8.40;82.10;;;;;;20651749;28;20403;-49
2021/03/13 15:09:55;;;;;;;20.33;11.07;;;7.90;82.60;;;;;;20818739;28;20407;-47
2021/03/13 15:19:57;;;;;;;18.85;10.32;;;7.80;84.00;;;;;;20817063;28;20049;-46
2021/03/13 15:29:59;;;;;;;28.23;15.57;;;7.50;85.80;;;;;;20816094;28;20025;-47
2021/03/13 15:40:04;;;;;;;20.58;11.98;;;7.20;91.70;;;;;;20783139;28;20072;-45
2021/03/13 15:50:09;;;;;;;26.42;14.63;;;6.80;90.50;;;;;;20798568;28;20045;-47
2021/03/13 16:00:15;;;;;;;24.33;11.82;;;6.60;92.00;;;;;;20737165;28;20038;-47
2021/03/13 16:10:23;;;;;;;21.00;11.57;;;6.40;91.40;;;;;;20714897;28;20073;-45
2021/03/13 16:20:26;;;;;;;28.40;14.80;;;6.20;93.50;;;;;;20715025;28;20038;-48
2021/03/13 16:30:28;;;;;;;28.20;14.75;;;6.10;98.80;;;;;;20696508;28;20073;-48
2021/03/13 16:40:31;;;;;;;29.60;13.90;;;5.80;99.90;;;;;;20713047;28;20033;-46
2021/03/13 16:50:42;;;;;;;32.60;16.13;;;5.70;99.90;;;;;;20696212;28;20088;-55
2021/03/13 17:00:45;;;;;;;25.38;11.30;;;5.50;99.90;;;;;;20651601;28;20037;-48
2021/03/13 17:10:48;;;;;;;28.35;14.50;;;5.30;99.90;;;;;;20775842;28;20067;-48
2021/03/13 17:20:57;;;;;;;35.65;15.98;;;5.10;99.90;;;;;;20788592;28;20091;-55
2021/03/13 17:31:01;;;;;;;33.78;16.48;;;4.90;99.90;;;;;;20756188;28;20460;-46
2021/03/13 17:41:04;;;;;;;35.72;17.65;;;4.80;99.90;;;;;;20786445;28;20322;-45
2021/03/13 17:51:17;;;;;;;33.25;15.55;;;4.80;99.90;;;;;;20757162;28;20037;-47
2021/03/13 18:01:21;;;;;;;31.58;16.65;;;4.60;99.90;;;;;;20731161;28;20064;-47
2021/03/13 18:11:24;;;;;;;39.13;19.05;;;4.80;99.90;;;;;;20770841;28;20053;-55
2021/03/13 18:21:32;;;;;;;38.47;18.58;;;4.70;99.90;;;;;;20709012;28;20041;-50
2021/03/13 18:31:36;;;;;;;33.55;17.10;;;4.60;99.90;;;;;;20704067;28;20095;-47
2021/03/13 18:41:42;;;;;;;30.58;15.77;;;4.60;99.90;;;;;;20669001;28;20034;-46
2021/03/13 20:18:38;;;;;;;69.60;34.15;;;3.90;99.90;;;;;;21179013;27;1672243;-65
2021/03/13 20:28:41;;;;;;;73.70;34.92;;;4.00;99.90;;;;;;21120800;28;20043;-65
2021/03/13 20:38:47;;;;;;;70.63;33.90;;;4.00;99.90;;;;;;21140063;28;20381;-65
2021/03/13 20:48:49;;;;;;;54.45;27.17;;;4.10;99.90;;;;;;21120189;28;20041;-65
2021/03/13 20:58:53;;;;;;;36.85;16.98;;;4.00;99.90;;;;;;21054740;28;20036;-65
2021/03/13 21:08:55;;;;;;;26.08;14.38;;;4.00;99.90;;;;;;21054117;28;20032;-65
2021/03/13 21:18:58;;;;;;;37.53;16.40;;;4.10;99.90;;;;;;21053513;28;20062;-65
2021/03/13 21:29:03;;;;;;;23.55;10.73;;;3.90;99.90;;;;;;21000799;28;20395;-65
2021/03/13 21:39:06;;;;;;;22.70;9.98;;;3.70;99.90;;;;;;20995528;28;20064;-65
2021/03/13 21:49:10;;;;;;;23.20;9.63;;;3.40;99.90;;;;;;20996066;28;20073;-65
2021/03/13 21:59:12;;;;;;;18.23;7.07;;;3.30;99.90;;;;;;20994708;28;20049;-65
2021/03/13 22:09:15;;;;;;;11.73;5.18;;;3.10;99.90;;;;;;20994966;28;20539;-65
2021/03/13 22:19:18;;;;;;;10.23;4.25;;;3.10;99.90;;;;;;20993765;28;20066;-64
2021/03/13 22:29:21;;;;;;;12.23;3.00;;;3.20;99.90;;;;;;20993227;28;20098;-64
2021/03/13 22:39:23;;;;;;;9.93;3.15;;;3.40;99.90;;;;;;20990180;28;20033;-65
2021/03/13 22:49:26;;;;;;;5.97;2.53;;;3.50;99.90;;;;;;20991634;28;20032;-64
2021/03/13 22:59:29;;;;;;;11.15;3.47;;;3.60;99.90;;;;;;20990380;28;20525;-65
2021/03/13 23:09:31;;;;;;;11.30;3.90;;;3.60;99.90;;;;;;20990061;28;20070;-65
2021/03/13 23:19:33;;;;;;;13.73;4.78;;;3.60;99.90;;;;;;20988749;28;20040;-65
2021/03/13 23:29:38;;;;;;;11.50;5.35;;;3.50;99.90;;;;;;20986437;28;20087;-64
2021/03/13 23:39:40;;;;;;;14.75;6.22;;;3.40;99.90;;;;;;20987080;28;20041;-64
2021/03/13 23:49:42;;;;;;;9.98;5.15;;;3.20;99.90;;;;;;20986998;28;20089;-64
2021/03/13 23:59:44;;;;;;;5.35;1.55;;;3.10;99.90;;;;;;20986403;28;20049;-63
